createdAt,value
2017-10-15T00:00:35.953Z,19.20
2017-10-15T00:01:35.987Z,18.60
2017-10-15T00:02:36.022Z,18.00
2017-10-15T00:03:36.054Z,17.90
2017-10-15T00:04:36.088Z,16.40
2017-10-15T00:05:36.122Z,17.70
2017-10-15T00:06:36.156Z,21.00
2017-10-15T00:07:36.190Z,18.10
2017-10-15T00:08:36.223Z,19.20
2017-10-15T00:09:36.258Z,18.60
2017-10-15T00:10:36.292Z,20.60
2017-10-15T00:11:36.326Z,19.90
2017-10-15T00:12:36.360Z,19.90
2017-10-15T00:13:36.393Z,18.00
2017-10-15T00:14:36.429Z,16.90
2017-10-15T00:15:36.462Z,17.40
2017-10-15T00:16:36.494Z,19.00
2017-10-15T00:17:36.529Z,19.00
2017-10-15T00:18:36.562Z,17.60
2017-10-15T00:19:36.597Z,18.30
2017-10-15T00:20:36.634Z,17.10
2017-10-15T00:21:36.664Z,17.10
2017-10-15T00:22:36.700Z,18.00
2017-10-15T00:23:36.734Z,17.20
2017-10-15T00:24:36.767Z,16.50
2017-10-15T00:25:36.802Z,15.00
2017-10-15T00:26:36.835Z,15.90
2017-10-15T00:27:36.870Z,16.90
2017-10-15T00:28:36.902Z,16.40
2017-10-15T00:29:36.937Z,16.00
2017-10-15T00:30:36.972Z,16.60
2017-10-15T00:31:37.005Z,16.40
2017-10-15T00:32:37.039Z,14.40
2017-10-15T00:33:37.079Z,15.60
2017-10-15T00:34:37.107Z,15.50
2017-10-15T00:35:37.141Z,15.50
2017-10-15T00:36:37.173Z,15.30
2017-10-15T00:37:37.208Z,15.30
2017-10-15T00:38:37.243Z,15.70
2017-10-15T00:39:37.278Z,13.90
2017-10-15T00:40:37.316Z,14.30
2017-10-15T00:41:37.344Z,13.50
2017-10-15T00:42:37.378Z,13.10
2017-10-15T00:43:37.413Z,12.80
2017-10-15T00:44:37.446Z,13.10
2017-10-15T00:45:37.481Z,12.60
2017-10-15T00:46:37.519Z,11.80
2017-10-15T00:47:37.549Z,12.30
2017-10-15T00:48:37.589Z,13.70
2017-10-15T00:49:37.615Z,12.90
2017-10-15T00:50:37.650Z,13.60
2017-10-15T00:51:37.685Z,12.10
2017-10-15T00:52:37.718Z,13.80
2017-10-15T00:53:37.752Z,12.60
2017-10-15T00:54:37.786Z,12.20
2017-10-15T00:55:37.820Z,11.60
2017-10-15T00:56:37.854Z,12.60
2017-10-15T00:57:37.889Z,12.30
2017-10-15T00:58:37.922Z,12.30
2017-10-15T00:59:37.961Z,13.30
2017-10-15T01:00:37.997Z,12.90
2017-10-15T01:01:38.024Z,13.60
2017-10-15T01:02:38.058Z,13.10
2017-10-15T01:03:38.093Z,14.20
2017-10-15T01:04:38.125Z,13.50
2017-10-15T01:05:38.159Z,14.60
2017-10-15T01:06:38.194Z,13.80
2017-10-15T01:07:38.228Z,13.90
2017-10-15T01:08:38.262Z,14.00
2017-10-15T01:09:38.297Z,14.10
2017-10-15T01:10:38.331Z,13.60
2017-10-15T01:11:38.363Z,12.30
2017-10-15T01:12:38.396Z,13.40
2017-10-15T01:13:38.429Z,12.80
2017-10-15T01:14:38.465Z,13.40
2017-10-15T01:15:38.499Z,12.10
2017-10-15T01:16:38.533Z,12.90
2017-10-15T01:17:38.566Z,12.80
2017-10-15T01:18:38.601Z,11.60
2017-10-15T01:19:38.641Z,11.20
2017-10-15T01:20:38.668Z,11.40
2017-10-15T01:21:38.702Z,11.00
2017-10-15T01:22:38.736Z,10.80
2017-10-15T01:23:38.770Z,10.80
2017-10-15T01:24:38.805Z,10.70
2017-10-15T01:25:38.837Z,11.90
2017-10-15T01:26:38.871Z,11.30
2017-10-15T01:27:38.905Z,11.80
2017-10-15T01:28:38.942Z,12.10
2017-10-15T01:29:38.971Z,11.30
2017-10-15T01:30:39.005Z,11.80
2017-10-15T01:31:39.038Z,11.70
2017-10-15T01:32:39.072Z,12.10
2017-10-15T01:33:39.106Z,11.90
2017-10-15T01:34:39.140Z,11.70
2017-10-15T01:35:39.173Z,11.60
2017-10-15T01:36:39.206Z,11.70
2017-10-15T01:37:39.241Z,11.20
2017-10-15T01:38:39.276Z,11.40
2017-10-15T01:39:39.308Z,11.40
2017-10-15T01:40:39.341Z,11.10
2017-10-15T01:41:39.375Z,10.50
2017-10-15T01:42:39.408Z,10.80
2017-10-15T01:43:39.442Z,11.20
2017-10-15T01:44:39.474Z,11.40
2017-10-15T01:45:39.508Z,11.10
2017-10-15T01:46:39.540Z,10.60
2017-10-15T01:47:39.581Z,10.70
2017-10-15T01:48:39.607Z,10.30
2017-10-15T01:49:39.639Z,10.00
2017-10-15T01:50:39.675Z,10.90
2017-10-15T01:51:39.707Z,10.40
2017-10-15T01:52:39.740Z,10.50
2017-10-15T01:53:39.774Z,11.60
2017-10-15T01:54:39.808Z,12.10
2017-10-15T01:55:39.841Z,11.50
2017-10-15T01:56:39.873Z,12.20
2017-10-15T01:57:39.906Z,11.40
2017-10-15T01:58:39.940Z,11.70
2017-10-15T01:59:39.974Z,11.90
2017-10-15T02:00:40.006Z,11.40
2017-10-15T02:01:40.039Z,11.00
2017-10-15T02:02:40.073Z,11.70
2017-10-15T02:03:40.106Z,11.70
2017-10-15T02:04:40.141Z,11.60
2017-10-15T02:05:40.173Z,11.90
2017-10-15T02:06:40.206Z,11.70
2017-10-15T02:07:40.239Z,10.90
2017-10-15T02:08:40.272Z,11.80
2017-10-15T02:09:40.305Z,11.80
2017-10-15T02:10:40.342Z,11.60
2017-10-15T02:11:40.371Z,11.70
2017-10-15T02:12:40.404Z,11.40
2017-10-15T02:13:40.439Z,12.50
2017-10-15T02:14:40.471Z,12.50
2017-10-15T02:15:40.505Z,11.90
2017-10-15T02:16:40.536Z,12.30
2017-10-15T02:17:40.570Z,12.80
2017-10-15T02:18:40.603Z,14.30
2017-10-15T02:19:40.637Z,12.40
2017-10-15T02:20:40.670Z,12.10
2017-10-15T02:21:40.702Z,12.00
2017-10-15T02:22:40.736Z,11.10
2017-10-15T02:23:40.771Z,11.90
2017-10-15T02:24:40.802Z,11.40
2017-10-15T02:25:40.839Z,11.30
2017-10-15T02:26:40.869Z,12.40
2017-10-15T02:27:40.903Z,12.60
2017-10-15T02:28:40.984Z,12.60
2017-10-15T02:29:40.969Z,12.30
2017-10-15T02:30:41.002Z,11.60
2017-10-15T02:31:41.033Z,12.00
2017-10-15T02:32:41.069Z,11.60
2017-10-15T02:33:41.100Z,11.70
2017-10-15T02:34:41.133Z,11.20
2017-10-15T02:35:41.169Z,11.50
2017-10-15T02:36:41.200Z,10.40
2017-10-15T02:37:41.232Z,9.50
2017-10-15T02:38:41.266Z,11.20
2017-10-15T02:39:41.301Z,11.00
2017-10-15T02:40:41.334Z,12.40
2017-10-15T02:41:41.366Z,12.40
2017-10-15T02:42:41.398Z,12.70
2017-10-15T02:43:41.432Z,12.60
2017-10-15T02:44:41.465Z,12.30
2017-10-15T02:45:41.500Z,13.50
2017-10-15T02:46:41.533Z,13.00
2017-10-15T02:47:41.566Z,13.90
2017-10-15T02:48:41.597Z,13.50
2017-10-15T02:49:41.631Z,14.20
2017-10-15T02:50:41.664Z,15.10
2017-10-15T02:51:41.703Z,15.10
2017-10-15T02:52:41.730Z,16.90
2017-10-15T02:53:41.763Z,17.90
2017-10-15T02:54:41.797Z,18.60
2017-10-15T02:55:41.830Z,17.50
2017-10-15T02:56:41.862Z,16.00
2017-10-15T02:57:41.896Z,16.40
2017-10-15T02:58:41.928Z,16.10
2017-10-15T02:59:41.962Z,15.50
2017-10-15T03:00:41.996Z,16.40
2017-10-15T03:01:42.028Z,15.10
2017-10-15T03:02:42.061Z,16.70
2017-10-15T03:03:42.095Z,17.40
2017-10-15T03:04:42.127Z,17.40
2017-10-15T03:05:42.161Z,16.60
2017-10-15T03:06:42.194Z,15.10
2017-10-15T03:07:42.228Z,14.60
2017-10-15T03:08:42.260Z,15.60
2017-10-15T03:09:42.292Z,16.00
2017-10-15T03:10:42.326Z,16.80
2017-10-15T03:11:42.360Z,17.20
2017-10-15T03:12:42.396Z,17.60
2017-10-15T03:13:42.425Z,19.80
2017-10-15T03:14:42.458Z,20.10
2017-10-15T03:15:42.492Z,19.00
2017-10-15T03:16:42.524Z,19.60
2017-10-15T03:17:42.559Z,17.50
2017-10-15T03:18:42.591Z,17.90
2017-10-15T03:19:42.624Z,17.40
2017-10-15T03:20:42.663Z,18.10
2017-10-15T03:21:42.690Z,17.90
2017-10-15T03:22:42.723Z,17.20
2017-10-15T03:23:42.761Z,19.50
2017-10-15T03:24:42.791Z,17.70
2017-10-15T03:25:42.821Z,16.40
2017-10-15T03:26:42.855Z,16.60
2017-10-15T03:27:42.888Z,16.10
2017-10-15T03:28:42.923Z,15.30
2017-10-15T03:29:42.953Z,14.30
2017-10-15T03:30:42.989Z,13.30
2017-10-15T03:31:43.021Z,13.90
2017-10-15T03:32:43.052Z,13.30
2017-10-15T03:33:43.085Z,13.40
2017-10-15T03:34:43.119Z,14.10
2017-10-15T03:35:43.153Z,13.30
2017-10-15T03:36:43.184Z,13.10
2017-10-15T03:37:43.218Z,13.90
2017-10-15T03:38:43.252Z,13.80
2017-10-15T03:39:43.284Z,15.20
2017-10-15T03:40:43.316Z,14.80
2017-10-15T03:41:43.352Z,15.70
2017-10-15T03:42:43.382Z,15.90
2017-10-15T03:43:43.416Z,16.10
2017-10-15T03:44:43.447Z,16.20
2017-10-15T03:45:43.483Z,16.60
2017-10-15T03:46:43.515Z,17.00
2017-10-15T03:47:43.549Z,16.40
2017-10-15T03:48:43.581Z,16.20
2017-10-15T03:49:43.614Z,15.00
2017-10-15T03:50:43.648Z,15.50
2017-10-15T03:51:43.680Z,14.60
2017-10-15T03:52:43.713Z,14.10
2017-10-15T03:53:43.745Z,14.60
2017-10-15T03:54:43.781Z,13.80
2017-10-15T03:55:43.811Z,13.50
2017-10-15T03:56:43.844Z,14.40
2017-10-15T03:57:43.878Z,14.60
2017-10-15T03:58:43.910Z,14.90
2017-10-15T03:59:43.944Z,15.20
2017-10-15T04:00:43.976Z,15.70
2017-10-15T04:01:44.008Z,14.40
2017-10-15T04:02:44.045Z,15.40
2017-10-15T04:03:44.075Z,15.60
2017-10-15T04:04:44.108Z,15.40
2017-10-15T04:05:44.140Z,15.40
2017-10-15T04:06:44.174Z,14.20
2017-10-15T04:07:44.208Z,13.10
2017-10-15T04:08:44.237Z,13.30
2017-10-15T04:09:44.279Z,13.80
2017-10-15T04:10:44.305Z,11.90
2017-10-15T04:11:44.337Z,13.50
2017-10-15T04:12:44.370Z,13.20
2017-10-15T04:13:44.409Z,13.00
2017-10-15T04:14:44.438Z,13.90
2017-10-15T04:15:44.469Z,13.70
2017-10-15T04:16:44.501Z,14.50
2017-10-15T04:17:44.534Z,14.60
2017-10-15T04:18:44.568Z,14.00
2017-10-15T04:19:44.601Z,13.80
2017-10-15T04:20:44.632Z,14.30
2017-10-15T04:21:44.666Z,14.10
2017-10-15T04:22:44.697Z,15.30
2017-10-15T04:23:44.732Z,15.80
2017-10-15T04:24:44.764Z,18.50
2017-10-15T04:25:44.796Z,17.20
2017-10-15T04:26:44.830Z,19.70
2017-10-15T04:27:44.862Z,17.90
2017-10-15T04:28:44.894Z,20.90
2017-10-15T04:29:44.927Z,19.40
2017-10-15T04:30:44.965Z,18.60
2017-10-15T04:31:44.993Z,17.70
2017-10-15T04:32:45.025Z,18.00
2017-10-15T04:33:45.059Z,17.70
2017-10-15T04:34:45.091Z,17.00
2017-10-15T04:35:45.125Z,15.20
2017-10-15T04:36:45.157Z,16.80
2017-10-15T04:37:45.189Z,14.90
2017-10-15T04:38:45.222Z,15.60
2017-10-15T04:39:45.256Z,17.10
2017-10-15T04:40:45.287Z,17.50
2017-10-15T04:41:45.322Z,16.70
2017-10-15T04:42:45.354Z,16.60
2017-10-15T04:43:45.388Z,18.80
2017-10-15T04:44:45.419Z,18.90
2017-10-15T04:45:45.452Z,19.70
2017-10-15T04:46:45.486Z,21.40
2017-10-15T04:47:45.518Z,23.20
2017-10-15T04:48:45.551Z,22.20
2017-10-15T04:49:45.584Z,23.90
2017-10-15T04:50:45.617Z,25.30
2017-10-15T04:51:45.650Z,28.90
2017-10-15T04:52:45.683Z,29.00
2017-10-15T04:53:45.715Z,32.00
2017-10-15T04:54:45.750Z,33.40
2017-10-15T04:55:45.782Z,34.40
2017-10-15T04:56:45.814Z,33.30
2017-10-15T04:57:45.846Z,32.10
2017-10-15T04:58:45.879Z,32.90
2017-10-15T04:59:45.912Z,30.10
2017-10-15T05:00:45.944Z,28.00
2017-10-15T05:01:45.977Z,25.80
2017-10-15T05:02:46.011Z,23.40
2017-10-15T05:03:46.051Z,21.40
2017-10-15T05:04:46.076Z,20.90
2017-10-15T05:05:46.108Z,20.40
2017-10-15T05:06:46.142Z,17.70
2017-10-15T05:07:46.178Z,17.90
2017-10-15T05:08:46.207Z,17.00
2017-10-15T05:09:46.239Z,16.60
2017-10-15T05:10:46.276Z,17.70
2017-10-15T05:11:46.306Z,17.40
2017-10-15T05:12:46.336Z,18.50
2017-10-15T05:13:46.369Z,15.90
2017-10-15T05:14:46.400Z,17.60
2017-10-15T05:15:46.434Z,16.90
2017-10-15T05:16:46.466Z,15.50
2017-10-15T05:17:46.499Z,16.00
2017-10-15T05:18:46.532Z,17.10
2017-10-15T05:19:46.564Z,16.20
2017-10-15T05:20:46.598Z,16.40
2017-10-15T05:21:46.629Z,16.90
2017-10-15T05:22:46.662Z,16.60
2017-10-15T05:23:46.694Z,15.30
2017-10-15T05:24:46.728Z,15.60
2017-10-15T05:25:46.760Z,16.40
2017-10-15T05:26:46.793Z,15.80
2017-10-15T05:27:46.825Z,16.00
2017-10-15T05:28:46.863Z,14.40
2017-10-15T05:29:46.889Z,15.50
2017-10-15T05:30:46.923Z,15.70
2017-10-15T05:31:46.954Z,16.40
2017-10-15T05:32:46.986Z,15.60
2017-10-15T05:33:47.021Z,15.40
2017-10-15T05:34:47.052Z,15.90
2017-10-15T05:35:47.084Z,15.00
2017-10-15T05:36:47.115Z,15.50
2017-10-15T05:37:47.148Z,15.10
2017-10-15T05:38:47.182Z,15.70
2017-10-15T05:39:47.214Z,15.90
2017-10-15T05:40:47.246Z,16.60
2017-10-15T05:41:47.278Z,16.40
2017-10-15T05:42:47.310Z,16.10
2017-10-15T05:43:47.344Z,15.40
2017-10-15T05:44:47.376Z,15.20
2017-10-15T05:45:47.408Z,16.40
2017-10-15T05:46:47.442Z,16.70
2017-10-15T05:47:47.473Z,15.80
2017-10-15T05:48:47.505Z,14.80
2017-10-15T05:49:47.538Z,15.80
2017-10-15T05:50:47.572Z,17.70
2017-10-15T05:51:47.602Z,16.50
2017-10-15T05:52:47.635Z,15.60
2017-10-15T05:53:47.668Z,14.90
2017-10-15T05:54:47.700Z,15.20
2017-10-15T05:55:47.733Z,14.70
2017-10-15T05:56:47.764Z,15.80
2017-10-15T05:57:47.796Z,14.00
2017-10-15T05:58:47.828Z,13.40
2017-10-15T05:59:47.862Z,13.00
2017-10-15T06:00:47.893Z,12.30
2017-10-15T06:01:47.925Z,13.60
2017-10-15T06:02:47.958Z,12.70
2017-10-15T06:03:47.990Z,13.40
2017-10-15T06:04:48.022Z,12.90
2017-10-15T06:05:48.055Z,12.50
2017-10-15T06:06:48.087Z,12.30
2017-10-15T06:07:48.124Z,13.20
2017-10-15T06:08:48.152Z,13.10
2017-10-15T06:09:48.184Z,12.30
2017-10-15T06:10:48.218Z,12.70
2017-10-15T06:11:48.249Z,11.50
2017-10-15T06:12:48.281Z,12.00
2017-10-15T06:13:48.315Z,12.10
2017-10-15T06:14:48.346Z,11.50
2017-10-15T06:15:48.378Z,12.90
2017-10-15T06:16:48.410Z,12.70
2017-10-15T06:17:48.443Z,12.60
2017-10-15T06:18:48.477Z,12.50
2017-10-15T06:19:48.508Z,13.10
2017-10-15T06:20:48.540Z,12.90
2017-10-15T06:21:48.573Z,14.10
2017-10-15T06:22:48.606Z,15.20
2017-10-15T06:23:48.641Z,17.40
2017-10-15T06:24:48.669Z,16.70
2017-10-15T06:25:48.704Z,15.50
2017-10-15T06:26:48.735Z,15.80
2017-10-15T06:27:48.768Z,15.70
2017-10-15T06:28:48.800Z,14.80
2017-10-15T06:29:48.835Z,14.70
2017-10-15T06:30:48.865Z,13.30
2017-10-15T06:31:48.899Z,13.70
2017-10-15T06:32:48.930Z,13.10
2017-10-15T06:33:48.962Z,13.20
2017-10-15T06:34:48.995Z,13.50
2017-10-15T06:35:49.027Z,12.30
2017-10-15T06:36:49.059Z,12.70
2017-10-15T06:37:49.093Z,12.30
2017-10-15T06:38:49.125Z,12.00
2017-10-15T06:39:49.158Z,13.00
2017-10-15T06:40:49.191Z,12.00
2017-10-15T06:41:49.223Z,11.90
2017-10-15T06:42:49.256Z,12.10
2017-10-15T06:43:49.290Z,12.90
2017-10-15T06:44:49.321Z,12.50
2017-10-15T06:45:49.354Z,12.40
2017-10-15T06:46:49.387Z,12.60
2017-10-15T06:47:49.421Z,11.70
2017-10-15T06:48:49.453Z,13.10
2017-10-15T06:49:49.485Z,12.10
2017-10-15T06:50:49.518Z,12.60
2017-10-15T06:51:49.552Z,12.70
2017-10-15T06:52:49.582Z,12.30
2017-10-15T06:53:49.617Z,12.50
2017-10-15T06:54:49.650Z,12.10
2017-10-15T06:55:49.688Z,11.80
2017-10-15T06:56:49.717Z,11.60
2017-10-15T06:57:49.751Z,11.70
2017-10-15T06:58:49.787Z,10.80
2017-10-15T06:59:49.816Z,11.30
2017-10-15T07:00:49.849Z,11.40
2017-10-15T07:01:49.882Z,10.40
2017-10-15T07:02:49.916Z,10.80
2017-10-15T07:03:49.950Z,11.40
2017-10-15T07:04:49.982Z,10.20
2017-10-15T07:05:50.016Z,10.10
2017-10-15T07:06:50.053Z,10.80
2017-10-15T07:07:50.083Z,9.50
2017-10-15T07:08:50.116Z,9.60
2017-10-15T07:09:50.150Z,10.00
2017-10-15T07:10:50.184Z,9.60
2017-10-15T07:11:50.219Z,9.30
2017-10-15T07:12:50.251Z,9.50
2017-10-15T07:13:50.286Z,9.60
2017-10-15T07:14:50.319Z,9.80
2017-10-15T07:15:50.354Z,10.50
2017-10-15T07:16:50.387Z,9.90
2017-10-15T07:17:50.422Z,9.20
2017-10-15T07:18:50.456Z,9.90
2017-10-15T07:19:50.494Z,9.40
2017-10-15T07:20:50.524Z,9.40
2017-10-15T07:21:50.567Z,9.50
2017-10-15T07:22:50.593Z,10.00
2017-10-15T07:23:50.629Z,8.80
2017-10-15T07:24:50.662Z,8.80
2017-10-15T07:25:50.697Z,8.80
2017-10-15T07:26:50.730Z,9.00
2017-10-15T07:27:50.766Z,8.40
2017-10-15T07:28:50.801Z,9.50
2017-10-15T07:29:50.835Z,9.00
2017-10-15T07:30:50.872Z,8.30
2017-10-15T07:31:50.908Z,8.80
2017-10-15T07:32:50.940Z,8.20
2017-10-15T07:33:50.975Z,8.20
2017-10-15T07:34:51.011Z,7.60
2017-10-15T07:35:51.047Z,8.70
2017-10-15T07:36:51.082Z,7.40
2017-10-15T07:37:51.119Z,7.70
2017-10-15T07:38:51.159Z,7.30
2017-10-15T07:39:51.189Z,7.30
2017-10-15T07:40:51.223Z,7.30
2017-10-15T07:41:51.267Z,7.70
2017-10-15T07:42:51.295Z,7.20
2017-10-15T07:43:51.332Z,6.90
2017-10-15T07:44:51.367Z,6.50
2017-10-15T07:45:51.403Z,6.80
2017-10-15T07:46:51.439Z,7.00
2017-10-15T07:47:51.475Z,7.30
2017-10-15T07:48:51.517Z,7.40
2017-10-15T07:49:51.548Z,7.10
2017-10-15T07:50:51.585Z,6.60
2017-10-15T07:51:51.623Z,7.20
2017-10-15T07:52:51.657Z,6.90
2017-10-15T07:53:51.699Z,7.60
2017-10-15T07:54:51.733Z,7.60
2017-10-15T07:55:51.772Z,7.40
2017-10-15T07:56:51.809Z,7.10
2017-10-15T07:57:51.846Z,7.10
2017-10-15T07:58:51.884Z,7.00
2017-10-15T07:59:51.922Z,6.40
2017-10-15T08:00:51.961Z,7.30
2017-10-15T08:01:52.000Z,6.00
2017-10-15T08:02:52.037Z,6.30
2017-10-15T08:03:52.076Z,7.40
2017-10-15T08:04:52.115Z,6.60
2017-10-15T08:05:52.157Z,6.30
2017-10-15T08:06:52.193Z,6.30
2017-10-15T08:07:52.232Z,7.20
2017-10-15T08:08:52.272Z,7.00
2017-10-15T08:09:52.311Z,6.00
2017-10-15T08:10:52.352Z,6.30
2017-10-15T08:11:52.391Z,6.50
2017-10-15T08:12:52.431Z,6.20
2017-10-15T08:13:52.469Z,5.90
2017-10-15T08:14:52.511Z,6.40
2017-10-15T08:15:52.552Z,6.10
2017-10-15T08:16:52.592Z,6.10
2017-10-15T08:17:52.634Z,6.70
2017-10-15T08:18:52.673Z,6.20
2017-10-15T08:19:52.715Z,6.40
2017-10-15T08:20:52.756Z,6.10
2017-10-15T08:21:52.797Z,6.30
2017-10-15T08:22:52.838Z,6.10
2017-10-15T08:23:52.881Z,6.70
2017-10-15T08:24:52.921Z,6.20
2017-10-15T08:25:52.963Z,6.60
2017-10-15T08:26:53.005Z,6.60
2017-10-15T08:27:53.048Z,6.60
2017-10-15T08:28:53.088Z,6.30
2017-10-15T08:29:53.131Z,6.20
2017-10-15T08:30:53.174Z,7.10
2017-10-15T08:31:53.215Z,6.20
2017-10-15T08:32:53.257Z,6.10
2017-10-15T08:33:53.302Z,6.70
2017-10-15T08:34:53.343Z,5.40
2017-10-15T08:35:53.386Z,5.90
2017-10-15T08:36:53.428Z,6.80
2017-10-15T08:37:53.471Z,6.50
2017-10-15T08:38:53.513Z,6.40
2017-10-15T08:39:53.559Z,6.30
2017-10-15T08:40:53.601Z,6.10
2017-10-15T08:41:53.646Z,5.30
2017-10-15T08:42:53.690Z,6.00
2017-10-15T08:43:53.733Z,5.60
2017-10-15T08:44:53.776Z,5.70
2017-10-15T08:45:53.820Z,5.50
2017-10-15T08:46:53.867Z,5.80
2017-10-15T08:47:53.918Z,5.50
2017-10-15T08:48:53.953Z,5.30
2017-10-15T08:49:53.999Z,6.10
2017-10-15T08:50:54.051Z,5.60
2017-10-15T08:51:54.090Z,5.10
2017-10-15T08:52:54.132Z,5.80
2017-10-15T08:53:54.178Z,5.40
2017-10-15T08:54:54.225Z,5.40
2017-10-15T08:55:54.271Z,5.40
2017-10-15T08:56:54.316Z,5.30
2017-10-15T08:57:54.362Z,5.40
2017-10-15T08:58:54.410Z,5.80
2017-10-15T08:59:54.454Z,5.90
2017-10-15T09:00:54.500Z,5.90
2017-10-15T09:01:54.548Z,5.80
2017-10-15T09:02:54.594Z,5.90
2017-10-15T09:03:54.639Z,6.60
2017-10-15T09:04:54.687Z,5.70
2017-10-15T09:05:54.735Z,6.50
2017-10-15T09:06:54.790Z,6.30
2017-10-15T09:07:54.830Z,5.70
2017-10-15T09:08:54.877Z,6.10
2017-10-15T09:09:54.926Z,5.60
2017-10-15T09:10:54.973Z,5.90
2017-10-15T09:11:55.021Z,5.50
2017-10-15T09:12:55.068Z,6.00
2017-10-15T09:13:55.118Z,6.50
2017-10-15T09:14:55.170Z,5.90
2017-10-15T09:15:55.216Z,5.90
2017-10-15T09:16:55.264Z,5.90
2017-10-15T09:17:55.313Z,4.90
2017-10-15T09:18:55.363Z,4.80
2017-10-15T09:19:55.412Z,4.70
2017-10-15T09:20:55.461Z,5.40
2017-10-15T09:21:55.511Z,4.80
2017-10-15T09:22:55.561Z,4.90
2017-10-15T09:23:55.611Z,4.90
2017-10-15T09:24:55.661Z,5.00
2017-10-15T09:25:55.711Z,5.30
2017-10-15T09:26:55.762Z,4.90
2017-10-15T09:27:55.812Z,4.30
2017-10-15T09:28:55.863Z,4.50
2017-10-15T09:29:55.913Z,4.30
2017-10-15T09:30:55.968Z,4.20
2017-10-15T09:31:56.016Z,4.50
2017-10-15T09:32:56.065Z,4.10
2017-10-15T09:33:56.116Z,4.70
2017-10-15T09:34:56.168Z,4.60
2017-10-15T09:35:56.220Z,3.90
2017-10-15T09:36:56.271Z,4.40
2017-10-15T09:37:56.322Z,4.00
2017-10-15T09:38:56.374Z,4.40
2017-10-15T09:39:56.426Z,4.80
2017-10-15T09:40:56.477Z,4.60
2017-10-15T09:41:56.529Z,4.20
2017-10-15T09:42:56.583Z,4.40
2017-10-15T09:43:56.633Z,3.80
2017-10-15T09:44:56.685Z,4.00
2017-10-15T09:45:56.748Z,4.40
2017-10-15T09:46:56.790Z,4.40
2017-10-15T09:47:56.842Z,3.70
2017-10-15T09:48:56.894Z,4.30
2017-10-15T09:49:56.948Z,4.20
2017-10-15T09:50:57.000Z,4.20
2017-10-15T09:51:57.052Z,3.80
2017-10-15T09:52:57.104Z,4.00
2017-10-15T09:53:57.157Z,3.80
2017-10-15T09:54:57.211Z,4.20
2017-10-15T09:55:57.263Z,4.10
2017-10-15T09:56:57.317Z,3.60
2017-10-15T09:57:57.369Z,4.40
2017-10-15T09:58:57.423Z,4.00
2017-10-15T09:59:57.476Z,3.90
2017-10-15T10:00:57.529Z,4.10
2017-10-15T10:01:57.583Z,3.70
2017-10-15T10:02:57.637Z,3.80
2017-10-15T10:03:57.690Z,3.80
2017-10-15T10:04:57.744Z,3.80
2017-10-15T10:05:57.796Z,3.70
2017-10-15T10:06:57.853Z,4.00
2017-10-15T10:07:57.904Z,3.50
2017-10-15T10:08:57.967Z,3.80
2017-10-15T10:09:58.012Z,3.90
2017-10-15T10:10:58.066Z,3.50
2017-10-15T10:11:58.120Z,3.40
2017-10-15T10:12:58.174Z,3.90
2017-10-15T10:13:58.228Z,3.60
2017-10-15T10:14:58.289Z,3.90
2017-10-15T10:15:58.337Z,3.50
2017-10-15T10:16:58.392Z,3.50
2017-10-15T10:17:58.449Z,3.50
2017-10-15T10:18:58.500Z,3.80
2017-10-15T10:19:58.555Z,3.30
2017-10-15T10:20:58.621Z,3.60
2017-10-15T10:21:58.663Z,4.00
2017-10-15T10:22:58.719Z,4.30
2017-10-15T10:23:58.774Z,3.90
2017-10-15T10:24:58.841Z,4.10
2017-10-15T10:25:58.883Z,4.20
2017-10-15T10:26:58.938Z,4.00
2017-10-15T10:27:58.994Z,4.10
2017-10-15T10:28:59.047Z,4.70
2017-10-15T10:29:59.102Z,4.10
2017-10-15T10:30:59.158Z,4.70
2017-10-15T10:31:59.213Z,4.40
2017-10-15T10:32:59.267Z,4.80
2017-10-15T10:33:59.323Z,4.60
2017-10-15T10:34:59.378Z,4.60
2017-10-15T10:35:59.441Z,4.40
2017-10-15T10:36:59.489Z,4.00
2017-10-15T10:37:59.543Z,4.60
2017-10-15T10:38:59.599Z,5.00
2017-10-15T10:39:59.655Z,4.50
2017-10-15T10:40:59.710Z,4.00
2017-10-15T10:41:59.772Z,4.40
2017-10-15T10:42:59.820Z,4.70
2017-10-15T10:43:59.876Z,4.30
2017-10-15T10:44:59.931Z,4.10
2017-10-15T10:45:59.988Z,4.20
2017-10-15T10:47:00.045Z,4.00
2017-10-15T10:48:00.099Z,4.50
2017-10-15T10:49:00.154Z,4.00
2017-10-15T10:50:00.209Z,4.20
2017-10-15T10:51:00.416Z,4.10
2017-10-15T10:52:00.322Z,3.90
2017-10-15T10:53:00.378Z,3.80
2017-10-15T10:54:00.433Z,4.60
2017-10-15T10:55:00.490Z,4.00
2017-10-15T10:56:00.548Z,4.30
2017-10-15T10:57:00.703Z,4.00
2017-10-15T10:58:00.658Z,3.70
2017-10-15T10:59:00.712Z,4.60
2017-10-15T11:00:00.770Z,4.20
2017-10-15T11:01:00.825Z,4.40
2017-10-15T11:02:00.934Z,4.30
2017-10-15T11:03:00.938Z,3.90
2017-10-15T11:04:00.995Z,4.50
2017-10-15T11:05:01.050Z,4.30
2017-10-15T11:06:01.109Z,4.20
2017-10-15T11:07:01.164Z,4.30
2017-10-15T11:08:01.220Z,4.50
2017-10-15T11:09:01.285Z,4.30
2017-10-15T11:10:01.332Z,3.80
2017-10-15T11:11:01.388Z,4.20
2017-10-15T11:12:01.446Z,4.40
2017-10-15T11:13:01.502Z,4.30
2017-10-15T11:14:01.558Z,3.90
2017-10-15T11:15:01.615Z,4.30
2017-10-15T11:16:01.674Z,3.70
2017-10-15T11:17:01.726Z,4.40
2017-10-15T11:18:01.784Z,4.50
2017-10-15T11:19:01.842Z,3.80
2017-10-15T11:20:01.899Z,4.40
2017-10-15T11:21:01.952Z,4.20
2017-10-15T11:22:02.010Z,3.80
2017-10-15T11:23:02.067Z,4.30
2017-10-15T11:24:02.126Z,4.30
2017-10-15T11:25:02.180Z,4.10
2017-10-15T11:26:02.237Z,3.70
2017-10-15T11:27:02.294Z,4.00
2017-10-15T11:28:02.353Z,4.40
2017-10-15T11:29:02.407Z,3.80
2017-10-15T11:30:02.464Z,4.50
2017-10-15T11:31:02.521Z,3.90
2017-10-15T11:32:02.579Z,3.60
2017-10-15T11:33:02.634Z,3.80
2017-10-15T11:34:02.692Z,3.60
2017-10-15T11:35:02.748Z,4.10
2017-10-15T11:36:02.806Z,3.80
2017-10-15T11:37:02.861Z,4.40
2017-10-15T11:38:02.920Z,4.00
2017-10-15T11:39:02.976Z,3.80
2017-10-15T11:40:03.039Z,3.80
2017-10-15T11:41:03.089Z,3.70
2017-10-15T11:42:03.146Z,3.60
2017-10-15T11:43:03.204Z,3.70
2017-10-15T11:44:03.261Z,4.10
2017-10-15T11:45:03.318Z,4.10
2017-10-15T11:46:03.375Z,3.40
2017-10-15T11:47:03.432Z,3.50
2017-10-15T11:48:03.490Z,3.70
2017-10-15T11:49:03.545Z,3.90
2017-10-15T11:50:03.603Z,3.40
2017-10-15T11:51:03.661Z,3.20
2017-10-15T11:52:03.719Z,3.20
2017-10-15T11:53:03.784Z,3.80
2017-10-15T11:54:03.832Z,3.40
2017-10-15T11:55:03.894Z,3.40
2017-10-15T11:56:03.948Z,3.70
2017-10-15T11:57:04.005Z,4.10
2017-10-15T11:58:04.062Z,3.40
2017-10-15T11:59:04.119Z,3.60
2017-10-15T12:00:04.178Z,3.60
2017-10-15T12:01:04.435Z,3.30
2017-10-15T12:02:04.296Z,3.70
2017-10-15T12:03:04.368Z,3.40
2017-10-15T12:04:04.408Z,3.50
2017-10-15T12:05:04.472Z,3.20
2017-10-15T12:06:04.523Z,3.30
2017-10-15T12:07:04.582Z,3.40
2017-10-15T12:08:04.639Z,4.00
2017-10-15T12:09:04.695Z,3.60
2017-10-15T12:10:04.753Z,3.10
2017-10-15T12:11:04.810Z,3.60
2017-10-15T12:12:04.870Z,3.70
2017-10-15T12:13:04.930Z,3.20
2017-10-15T12:14:04.985Z,3.30
2017-10-15T12:15:05.047Z,3.50
2017-10-15T12:16:05.098Z,3.30
2017-10-15T12:17:05.155Z,3.50
2017-10-15T12:18:05.212Z,3.60
2017-10-15T12:19:05.274Z,3.50
2017-10-15T12:20:05.330Z,3.70
2017-10-15T12:21:05.385Z,3.70
2017-10-15T12:22:05.442Z,3.30
2017-10-15T12:23:05.501Z,3.10
2017-10-15T12:24:05.564Z,3.50
2017-10-15T12:25:05.617Z,3.50
2017-10-15T12:26:05.676Z,3.30
2017-10-15T12:27:05.732Z,3.70
2017-10-15T12:28:05.789Z,3.50
2017-10-15T12:29:05.847Z,3.80
2017-10-15T12:30:05.940Z,4.40
2017-10-15T12:31:05.969Z,3.50
2017-10-15T12:32:06.020Z,3.20
2017-10-15T12:33:06.076Z,3.70
2017-10-15T12:34:06.133Z,3.80
2017-10-15T12:35:06.192Z,3.50
2017-10-15T12:36:06.249Z,3.40
2017-10-15T12:37:06.313Z,3.60
2017-10-15T12:38:06.364Z,3.70
2017-10-15T12:39:06.421Z,3.70
2017-10-15T12:40:06.478Z,3.50
2017-10-15T12:41:06.536Z,3.60
2017-10-15T12:42:06.593Z,3.40
2017-10-15T12:43:06.652Z,3.30
2017-10-15T12:44:06.710Z,3.50
2017-10-15T12:45:06.769Z,3.10
2017-10-15T12:46:06.831Z,3.50
2017-10-15T12:47:06.881Z,3.50
2017-10-15T12:48:06.939Z,3.60
2017-10-15T12:49:06.995Z,3.40
2017-10-15T12:50:07.054Z,3.60
2017-10-15T12:51:07.112Z,3.50
2017-10-15T12:52:07.170Z,3.10
2017-10-15T12:53:07.226Z,3.50
2017-10-15T12:54:07.285Z,3.10
2017-10-15T12:55:07.341Z,3.80
2017-10-15T12:56:07.401Z,3.10
2017-10-15T12:57:07.466Z,3.30
2017-10-15T12:58:07.514Z,3.10
2017-10-15T12:59:07.574Z,3.20
2017-10-15T13:00:07.633Z,3.60
2017-10-15T13:01:07.688Z,3.60
2017-10-15T13:02:07.744Z,3.60
2017-10-15T13:03:07.803Z,3.50
2017-10-15T13:04:07.860Z,3.70
2017-10-15T13:05:07.916Z,3.60